Alexandria International Airport
KAEX : now visible

Airfield :











YOU CAN JOIN US ON...

 
LOGIN :

Register | Disclaimer

   EN    FR    IT 

 









Legend :    VFR   Marginal VFR   IFR   Intensive IFR   Very Intensive IFR
Visi :
Ceiling :
>= 8 km
>= 3000ft
5 to 8 km
1000 to 3000 ft
1500m to 5 km
500 to 1000 ft
800 to 1500m
200 to 500 ft
< 800m
< 200 ft
Symbols :   Thunderstorms  Fog  Heavy snow  Heavy precipitations  Wind > 20 kt






- Airport Elevation : 89 ft
- IATA code : AEX


KAEX - Alexandria International

CURRENT METAR :
  • 282253Z 08006KT 9SM CLR 23/19 A3004 RMK AO2 SLP173 T02280194

EXPIRED METARs :
  • 282153Z 15008KT 8SM CLR 21/19 A3002 RMK AO2 WSHFT 2111 LTG DSNT E RAE38 SLP167 P0002 T02110194
  • 282126Z 14012G25KT 7SM -RA FEW050 FEW070 SCT120 21/19 A3000 RMK AO2 WSHFT 2111 LTG DSNT SE AND S P0002 T02060194
  • 282103Z 24009KT 6SM VCTS -RA BR FEW120 21/19 A3015 RMK AO2 LTG DSNT SE-SW PRESFR P0000 T02110189
  • 282053Z 28010KT 6SM -RA SCT120 22/19 A3018 RMK AO2 LTG DSNT SE-W RAB04 SLP221 P0003 60003 T02170189 51017
  • 281953Z 31009KT 8SM FEW050 SCT090 BKN120 24/20 A3015 RMK AO2 LTG DSNT SE-W RAB05E48 TSB12E27 PRESRR SLP212 P0000 T02390200
  • 281933Z 31003KT 7SM VCTS -RA FEW060 BKN095 BKN120 24/19 A3012 RMK AO2 LTG DSNT E-S RAB05 TSB12E27 P0000 T02440194
  • 281918Z 10005KT 8SM -TSRA FEW055 BKN110 24/19 A3011 RMK AO2 LTG DSNT S AND SW RAB05 TSB12 PRESFR P0000 T02440189 $
  • 281853Z 34008G20KT 9SM FEW070 SCT110 25/19 A3016 RMK AO2 PK WND 35026/1835 LTG DSNT ALQDS RAB12E39 SLP214 P0000 T02500189
  • 281816Z 35012G19KT 7SM VCTS -RA FEW095 SCT110 27/22 A3012 RMK AO2 LTG DSNT S-NW RAB12 P0000 T02720222
  • 281753Z 34012G18KT 7SM CLR 28/23 A3013 RMK AO2 LTG DSNT S-NW PRESRR SLP204 T02830228 10311 20256 53027

TAF KAEX
Valid from the 28 at 18:00 until the 29 at 18:00 UTC


281734Z 2818/2918 15012G20KT P6SM VCTS SCT035CB
TEMPO 2818/2822 VRB20G30KT 2SM +TSRA OVC025CB
FM290000 06008KT P6SM SCT035
FM290900 09006KT 5SM BR SCT025
KZHU FIR / North America



MET'MAP, your aeronautical weather chart ! - Copyright ORBIFLY December 2007 - Disclaimer

ORBIFLY MET'MAP TEAM :

Programming & Development : Alexandra Zaïnal
Original concept : Baudouin d'Aumeries
Technical & hardware support : Manuel Goepfert
Assistance : Marc-Olivier Méhu




SOURCES & CREDITS :

   NOAA       Earth
Advisory